createdAt,value
2017-12-14T00:01:30.229Z,5.30
2017-12-14T00:03:59.727Z,4.20
2017-12-14T00:06:28.389Z,4.85
2017-12-14T00:08:57.046Z,3.80
2017-12-14T00:11:25.731Z,7.65
2017-12-14T00:13:54.377Z,6.85
2017-12-14T00:16:23.793Z,5.57
2017-12-14T00:18:52.474Z,17.58
2017-12-14T00:21:21.881Z,5.78
2017-12-14T00:23:51.318Z,5.18
2017-12-14T00:26:19.974Z,4.28
2017-12-14T00:28:49.391Z,4.97
2017-12-14T00:31:18.060Z,4.20
2017-12-14T00:33:47.468Z,4.72
2017-12-14T00:36:16.153Z,5.05
2017-12-14T00:38:44.810Z,4.25
2017-12-14T00:41:13.461Z,7.62
2017-12-14T00:43:45.453Z,7.30
2017-12-14T00:46:13.424Z,4.90
2017-12-14T00:48:41.768Z,4.97
2017-12-14T00:51:09.753Z,4.53
2017-12-14T00:53:38.081Z,4.37
2017-12-14T00:56:07.176Z,4.90
2017-12-14T00:58:36.265Z,4.45
2017-12-14T01:01:05.714Z,4.30
2017-12-14T01:03:34.365Z,4.12
2017-12-14T01:06:03.449Z,5.30
2017-12-14T01:08:32.890Z,3.58
2017-12-14T01:11:01.539Z,4.60
2017-12-14T01:13:30.209Z,4.95
2017-12-14T01:15:58.862Z,5.95
2017-12-14T01:18:27.509Z,5.35
2017-12-14T01:20:56.950Z,4.00
2017-12-14T01:23:25.602Z,5.25
2017-12-14T01:25:55.052Z,4.53
2017-12-14T01:28:24.157Z,5.12
2017-12-14T01:30:52.814Z,5.40
2017-12-14T01:33:21.488Z,4.93
2017-12-14T01:35:50.562Z,4.95
2017-12-14T01:38:20.011Z,9.18
2017-12-14T01:40:48.670Z,5.90
2017-12-14T01:43:18.085Z,4.90
2017-12-14T01:45:46.430Z,5.03
2017-12-14T01:48:15.073Z,6.18
2017-12-14T01:50:43.744Z,4.93
2017-12-14T01:53:12.393Z,5.78
2017-12-14T01:55:41.809Z,5.40
2017-12-14T01:58:11.256Z,5.53
2017-12-14T02:00:39.245Z,5.45
2017-12-14T02:03:07.905Z,5.37
2017-12-14T02:05:36.553Z,4.80
2017-12-14T02:08:05.993Z,6.18
2017-12-14T02:10:34.637Z,5.30
2017-12-14T02:13:03.281Z,4.93
2017-12-14T02:15:31.949Z,5.10
2017-12-14T02:18:00.597Z,4.72
2017-12-14T02:20:30.047Z,3.75
2017-12-14T02:22:58.692Z,7.68
2017-12-14T02:25:28.139Z,3.50
2017-12-14T02:27:56.793Z,4.12
2017-12-14T02:30:25.465Z,3.67
2017-12-14T02:32:54.886Z,4.75
2017-12-14T02:35:24.319Z,4.70
2017-12-14T02:37:53.057Z,3.75
2017-12-14T02:40:22.493Z,3.83
2017-12-14T02:42:51.158Z,2.85
2017-12-14T02:45:20.598Z,3.60
2017-12-14T02:47:49.262Z,4.30
2017-12-14T02:50:17.928Z,3.90
2017-12-14T02:52:47.346Z,3.70
2017-12-14T02:55:16.021Z,4.28
2017-12-14T02:57:45.433Z,3.22
2017-12-14T03:00:14.618Z,3.87
2017-12-14T03:02:44.043Z,3.58
2017-12-14T03:05:12.726Z,3.78
2017-12-14T03:07:41.481Z,6.62
2017-12-14T03:10:09.793Z,4.55
2017-12-14T03:12:38.457Z,3.90
2017-12-14T03:15:07.901Z,2.58
2017-12-14T03:17:36.554Z,2.60
2017-12-14T03:20:05.990Z,2.45
2017-12-14T03:22:34.657Z,2.35
2017-12-14T03:25:04.101Z,2.40
2017-12-14T03:27:32.749Z,1.58
2017-12-14T03:30:02.157Z,1.73
2017-12-14T03:32:30.825Z,1.42
2017-12-14T03:35:00.241Z,1.02
2017-12-14T03:37:29.679Z,1.00
2017-12-14T03:39:58.325Z,1.00
2017-12-14T03:42:27.750Z,0.80
2017-12-14T03:44:56.410Z,1.08
2017-12-14T03:47:25.846Z,1.00
2017-12-14T03:49:53.833Z,0.80
2017-12-14T03:52:22.500Z,1.10
2017-12-14T03:54:51.160Z,1.52
2017-12-14T03:57:20.607Z,1.35
2017-12-14T03:59:49.267Z,1.58
2017-12-14T04:02:17.936Z,1.45
2017-12-14T04:04:47.357Z,1.50
2017-12-14T04:07:16.793Z,1.42
2017-12-14T04:09:45.108Z,1.80
2017-12-14T04:12:13.198Z,1.40
2017-12-14T04:14:41.953Z,1.40
2017-12-14T04:17:09.958Z,1.33
2017-12-14T04:19:38.713Z,1.48
2017-12-14T04:22:06.721Z,1.40
2017-12-14T04:24:35.477Z,1.70
2017-12-14T04:27:04.010Z,3.12
2017-12-14T04:29:32.001Z,1.30
2017-12-14T04:32:00.002Z,1.52
2017-12-14T04:34:27.989Z,1.12
2017-12-14T04:36:55.989Z,1.48
2017-12-14T04:39:23.986Z,1.37
2017-12-14T04:41:51.989Z,1.23
2017-12-14T04:44:20.310Z,1.35
2017-12-14T04:46:48.646Z,1.10
2017-12-14T04:49:16.658Z,2.55
2017-12-14T04:51:44.681Z,2.20
2017-12-14T04:54:13.006Z,2.62
2017-12-14T04:56:41.775Z,1.30
2017-12-14T04:59:10.214Z,1.30
2017-12-14T05:01:38.640Z,1.33
2017-12-14T05:04:08.344Z,1.37
2017-12-14T05:06:36.462Z,1.62
2017-12-14T05:09:04.459Z,1.73
2017-12-14T05:11:32.473Z,1.67
2017-12-14T05:14:02.472Z,1.60
2017-12-14T05:16:30.481Z,1.58
2017-12-14T05:18:58.814Z,1.70
2017-12-14T05:21:26.839Z,1.40
2017-12-14T05:23:54.843Z,1.40
2017-12-14T05:26:22.858Z,1.80
2017-12-14T05:28:51.631Z,3.22
2017-12-14T05:31:20.424Z,1.40
2017-12-14T05:33:49.198Z,1.70
2017-12-14T05:36:17.205Z,1.48
2017-12-14T05:38:45.206Z,1.60
2017-12-14T05:41:13.972Z,2.53
2017-12-14T05:43:41.967Z,1.30
2017-12-14T05:46:11.073Z,2.22
2017-12-14T05:48:39.059Z,1.48
2017-12-14T05:51:07.066Z,6.37
2017-12-14T05:53:35.820Z,1.48
2017-12-14T05:56:04.059Z,1.40
2017-12-14T05:58:32.048Z,1.40
2017-12-14T06:01:00.060Z,1.52
2017-12-14T06:03:29.149Z,1.33
2017-12-14T06:05:57.157Z,1.77
2017-12-14T06:08:25.145Z,2.35
2017-12-14T06:10:53.149Z,1.40
2017-12-14T06:13:21.137Z,1.92
2017-12-14T06:15:49.928Z,1.50
2017-12-14T06:18:18.691Z,1.67
2017-12-14T06:20:46.717Z,1.62
2017-12-14T06:23:14.709Z,1.77
2017-12-14T06:25:43.262Z,1.90
2017-12-14T06:28:11.263Z,1.70
2017-12-14T06:30:39.598Z,6.47
2017-12-14T06:33:08.405Z,2.75
2017-12-14T06:35:36.418Z,1.62
2017-12-14T06:38:07.145Z,2.40
2017-12-14T06:40:35.494Z,3.87
2017-12-14T06:43:03.874Z,1.87
2017-12-14T06:45:32.025Z,1.75
2017-12-14T06:48:00.052Z,2.28
2017-12-14T06:50:28.065Z,5.55
2017-12-14T06:55:30.045Z,5.05
2017-12-14T06:57:58.816Z,2.15
2017-12-14T07:00:27.174Z,2.65
2017-12-14T07:03:07.041Z,2.35
2017-12-14T07:05:35.050Z,2.50
2017-12-14T07:08:03.682Z,3.30
2017-12-14T07:10:31.716Z,2.80
2017-12-14T07:12:59.710Z,2.67
2017-12-14T07:15:27.716Z,2.75
2017-12-14T07:17:55.715Z,2.70
2017-12-14T07:20:23.761Z,5.03
2017-12-14T07:22:51.768Z,2.92
2017-12-14T07:25:19.814Z,4.00
2017-12-14T07:27:49.280Z,2.28
2017-12-14T07:30:17.367Z,2.45
2017-12-14T07:32:45.404Z,3.65
2017-12-14T07:35:13.931Z,3.78
2017-12-14T07:37:42.729Z,8.70
2017-12-14T07:40:10.874Z,2.60
2017-12-14T07:42:50.699Z,5.22
2017-12-14T07:45:30.625Z,9.63
2017-12-14T07:48:02.045Z,3.70
2017-12-14T07:50:30.762Z,5.30
2017-12-14T07:52:59.530Z,4.15
2017-12-14T07:55:27.550Z,3.37
2017-12-14T07:57:55.567Z,3.30
2017-12-14T08:00:24.438Z,2.42
2017-12-14T08:02:52.462Z,2.90
2017-12-14T08:05:20.474Z,2.65
2017-12-14T08:07:48.808Z,2.65
2017-12-14T08:10:17.916Z,6.43
2017-12-14T08:12:45.721Z,3.53
2017-12-14T08:15:14.043Z,3.37
2017-12-14T08:17:42.815Z,1.20
2017-12-14T08:20:10.842Z,1.60
2017-12-14T08:22:38.846Z,1.12
2017-12-14T08:25:07.181Z,1.50
2017-12-14T08:27:35.191Z,1.50
2017-12-14T08:30:03.184Z,2.10
2017-12-14T08:32:31.201Z,3.25
2017-12-14T08:34:59.561Z,1.25
2017-12-14T08:37:27.581Z,1.10
2017-12-14T08:39:55.570Z,2.15
2017-12-14T08:42:23.586Z,0.90
2017-12-14T08:44:51.576Z,1.20
2017-12-14T08:47:19.581Z,1.20
2017-12-14T08:49:47.570Z,0.80
2017-12-14T08:52:16.352Z,1.15
2017-12-14T08:54:45.114Z,1.33
2017-12-14T08:57:12.942Z,2.05
2017-12-14T08:59:41.283Z,3.50
2017-12-14T09:02:10.076Z,3.20
2017-12-14T09:04:38.854Z,1.80
2017-12-14T09:07:06.920Z,1.62
2017-12-14T09:09:34.928Z,2.08
2017-12-14T09:12:02.943Z,2.12
2017-12-14T09:14:31.272Z,1.40
2017-12-14T09:17:00.517Z,0.80
2017-12-14T09:19:28.514Z,1.20
2017-12-14T09:21:56.675Z,2.70
2017-12-14T09:24:24.682Z,1.20
2017-12-14T09:26:53.461Z,1.17
2017-12-14T09:29:22.226Z,1.65
2017-12-14T09:31:50.259Z,2.45
2017-12-14T09:34:18.255Z,1.10
2017-12-14T09:36:46.270Z,1.27
2017-12-14T09:39:15.025Z,1.10
2017-12-14T09:41:42.858Z,1.02
2017-12-14T09:44:10.892Z,2.15
2017-12-14T09:46:38.919Z,0.98
2017-12-14T09:49:07.877Z,1.37
2017-12-14T09:51:35.891Z,3.10
2017-12-14T09:54:03.888Z,1.90
2017-12-14T09:56:32.130Z,1.83
2017-12-14T09:59:00.133Z,1.85
2017-12-14T10:01:28.139Z,1.15
2017-12-14T10:03:56.140Z,1.50
2017-12-14T10:06:24.492Z,1.20
2017-12-14T10:08:53.485Z,1.70
2017-12-14T10:11:21.531Z,2.12
2017-12-14T10:13:50.909Z,2.35
2017-12-14T10:16:19.741Z,2.03
2017-12-14T10:18:49.032Z,2.35
2017-12-14T10:21:18.143Z,2.00
2017-12-14T10:23:46.197Z,2.35
2017-12-14T10:26:14.980Z,2.12
2017-12-14T10:28:43.780Z,2.05
2017-12-14T10:31:11.828Z,2.30
2017-12-14T10:33:39.836Z,1.00
2017-12-14T10:36:07.854Z,3.22
2017-12-14T10:38:35.848Z,1.20
2017-12-14T10:41:03.854Z,1.00
2017-12-14T10:43:31.847Z,2.05
2017-12-14T10:45:59.854Z,1.40
2017-12-14T12:16:26.214Z,1.92
2017-12-14T12:18:54.222Z,5.95
2017-12-14T12:21:22.281Z,6.62
2017-12-14T12:23:51.047Z,7.65
2017-12-14T12:26:19.063Z,6.10
2017-12-14T12:28:47.067Z,5.22
2017-12-14T12:31:15.084Z,4.03
2017-12-14T12:33:43.850Z,5.00
2017-12-14T12:36:12.199Z,1.62
2017-12-14T12:38:40.199Z,2.20
2017-12-14T12:41:08.228Z,13.60
2017-12-14T12:43:36.562Z,2.83
2017-12-14T12:46:06.341Z,4.05
2017-12-14T12:48:34.674Z,6.70
2017-12-14T12:51:02.689Z,2.55
2017-12-14T12:53:30.688Z,4.53
2017-12-14T12:55:59.484Z,4.90
2017-12-14T12:58:28.580Z,5.18
2017-12-14T13:00:57.368Z,5.97
2017-12-14T13:03:26.132Z,5.35
2017-12-14T13:05:54.152Z,4.70
2017-12-14T13:08:22.156Z,3.58
2017-12-14T13:10:50.435Z,3.33
2017-12-14T13:13:18.444Z,5.65
2017-12-14T13:15:47.226Z,1.95
2017-12-14T13:18:15.225Z,5.85
2017-12-14T13:20:43.237Z,4.12
2017-12-14T13:23:12.281Z,9.38
2017-12-14T13:25:40.847Z,5.18
2017-12-14T13:28:09.882Z,3.12
2017-12-14T13:30:37.914Z,3.45
2017-12-14T13:35:48.440Z,3.45
2017-12-14T13:38:16.442Z,3.85
2017-12-14T13:40:44.671Z,4.87
2017-12-14T13:43:12.675Z,2.65
2017-12-14T13:45:40.693Z,2.75
2017-12-14T13:48:09.462Z,3.08
2017-12-14T13:50:37.470Z,8.45
2017-12-14T13:53:05.473Z,3.53
2017-12-14T13:55:34.246Z,5.20
2017-12-14T13:58:02.065Z,3.35
2017-12-14T14:00:30.066Z,6.53
2017-12-14T14:02:58.839Z,2.17
2017-12-14T14:05:28.252Z,2.72
2017-12-14T14:07:57.022Z,3.80
2017-12-14T14:10:25.046Z,2.45
2017-12-14T14:12:53.374Z,3.30
2017-12-14T14:15:22.063Z,3.17
2017-12-14T14:17:50.736Z,4.00
2017-12-14T14:20:19.090Z,2.90
2017-12-14T14:22:47.411Z,6.50
2017-12-14T14:25:15.749Z,6.50
2017-12-14T14:27:44.087Z,5.10
2017-12-14T14:30:12.873Z,4.10
2017-12-14T14:32:41.655Z,7.90
2017-12-14T14:35:10.778Z,4.97
2017-12-14T14:37:39.454Z,6.25
2017-12-14T14:40:07.834Z,5.93
2017-12-14T14:42:36.205Z,6.87
2017-12-14T14:45:04.979Z,3.33
2017-12-14T14:47:34.132Z,7.15
2017-12-14T14:50:02.810Z,5.05
2017-12-14T14:52:31.487Z,6.22
2017-12-14T14:55:00.142Z,7.95
2017-12-14T14:57:29.583Z,5.07
2017-12-14T14:59:58.260Z,3.70
2017-12-14T15:02:27.826Z,4.05
2017-12-14T15:04:56.488Z,3.20
2017-12-14T15:07:25.169Z,2.45
2017-12-14T15:09:53.831Z,5.75
2017-12-14T15:12:22.512Z,5.80
2017-12-14T15:14:51.200Z,5.93
2017-12-14T15:17:19.886Z,6.05
2017-12-14T15:19:48.547Z,7.37
2017-12-14T15:22:18.007Z,9.55
2017-12-14T15:24:46.685Z,3.03
2017-12-14T15:27:15.370Z,7.82
2017-12-14T15:29:44.041Z,8.45
2017-12-14T15:32:12.726Z,9.32
2017-12-14T15:34:41.491Z,8.75
2017-12-14T15:37:11.635Z,8.48
2017-12-14T15:39:39.627Z,7.72
2017-12-14T15:42:08.329Z,8.85
2017-12-14T15:44:36.995Z,8.60
2017-12-14T15:47:05.674Z,11.00
2017-12-14T15:49:34.330Z,5.28
2017-12-14T15:52:03.892Z,6.50
2017-12-14T15:54:32.561Z,9.98
2017-12-14T15:57:01.240Z,11.23
2017-12-14T15:59:29.919Z,5.68
2017-12-14T16:01:58.607Z,5.90
2017-12-14T16:04:27.263Z,5.90
2017-12-14T16:06:55.959Z,10.20
2017-12-14T16:09:25.060Z,9.15
2017-12-14T16:11:54.515Z,11.90
2017-12-14T16:14:23.178Z,4.37
2017-12-14T16:16:52.593Z,7.00
2017-12-14T16:19:21.090Z,8.95
2017-12-14T16:21:49.786Z,5.37
2017-12-14T16:24:18.463Z,6.87
2017-12-14T16:26:47.151Z,5.50
2017-12-14T16:29:16.057Z,8.60
2017-12-14T16:31:44.729Z,7.45
2017-12-14T16:34:13.665Z,3.80
2017-12-14T16:36:42.778Z,10.82
2017-12-14T16:39:11.439Z,6.55
2017-12-14T16:41:40.114Z,6.62
2017-12-14T16:44:08.764Z,9.50
2017-12-14T16:46:37.458Z,15.98
2017-12-14T16:49:06.190Z,6.60
2017-12-14T16:51:34.853Z,6.28
2017-12-14T16:54:03.509Z,8.65
2017-12-14T16:56:32.201Z,5.40
2017-12-14T16:59:00.903Z,3.97
2017-12-14T17:01:29.657Z,9.30
2017-12-14T17:03:59.595Z,5.43
2017-12-14T17:06:28.285Z,13.38
2017-12-14T17:08:56.962Z,6.15
2017-12-14T17:11:25.644Z,10.85
2017-12-14T17:13:54.301Z,7.97
2017-12-14T17:16:26.776Z,5.97
2017-12-14T17:18:56.017Z,9.82
2017-12-14T17:21:24.515Z,5.15
2017-12-14T17:23:53.195Z,3.40
2017-12-14T17:26:21.886Z,5.20
2017-12-14T17:28:50.598Z,6.80
2017-12-14T17:31:25.866Z,8.15
2017-12-14T17:33:55.406Z,9.30
2017-12-14T17:36:24.090Z,4.62
2017-12-14T17:38:54.381Z,8.98
2017-12-14T17:41:23.112Z,11.02
2017-12-14T17:43:52.613Z,6.25
2017-12-14T17:46:21.327Z,5.62
2017-12-14T17:48:55.889Z,8.25
2017-12-14T17:51:25.306Z,7.00
2017-12-14T17:53:53.998Z,9.18
2017-12-14T17:56:22.672Z,7.15
2017-12-14T17:58:52.054Z,5.45
2017-12-14T18:01:21.684Z,7.03
2017-12-14T18:03:50.362Z,11.45
2017-12-14T18:06:19.042Z,11.68
2017-12-14T18:08:48.479Z,6.07
2017-12-14T18:11:16.827Z,7.03
2017-12-14T18:13:46.269Z,7.53
2017-12-14T18:16:25.430Z,4.62
2017-12-14T18:18:54.122Z,9.23
2017-12-14T18:21:23.818Z,6.35
2017-12-14T18:23:52.482Z,10.65
2017-12-14T18:26:22.084Z,9.05
2017-12-14T18:28:51.973Z,6.45
2017-12-14T18:31:24.393Z,7.82
2017-12-14T18:37:37.284Z,6.07
2017-12-14T18:40:09.035Z,7.43
2017-12-14T18:42:38.241Z,6.40
2017-12-14T18:45:07.689Z,4.90
2017-12-14T20:21:34.352Z,2.67
2017-12-14T20:24:03.014Z,4.12
2017-12-14T20:26:31.034Z,1.80
2017-12-14T20:28:59.514Z,2.53
2017-12-14T20:31:28.985Z,1.60
2017-12-14T20:33:57.379Z,1.30
2017-12-14T20:36:26.153Z,1.40
2017-12-14T20:38:54.483Z,1.35
2017-12-14T20:41:22.846Z,1.65
2017-12-14T20:43:51.505Z,1.60
2017-12-14T20:46:19.517Z,1.30
2017-12-14T20:48:48.782Z,1.40
2017-12-14T20:51:17.881Z,1.35
2017-12-14T20:53:47.309Z,8.63
2017-12-14T20:56:15.321Z,4.20
2017-12-14T20:58:43.646Z,6.05
2017-12-14T21:01:12.032Z,2.45
2017-12-14T21:03:40.745Z,2.22
2017-12-14T21:06:09.422Z,2.20
2017-12-14T21:08:38.083Z,2.15
2017-12-14T21:11:06.879Z,2.87
2017-12-14T21:13:35.538Z,1.77
2017-12-14T21:16:03.882Z,3.12
2017-12-14T21:18:32.247Z,5.05
2017-12-14T21:21:00.283Z,1.60
2017-12-14T21:23:29.991Z,2.37
2017-12-14T21:25:59.115Z,2.03
2017-12-14T21:28:28.374Z,1.95
2017-12-14T21:30:57.047Z,2.30
2017-12-14T21:33:25.369Z,2.60
2017-12-14T21:35:54.083Z,1.92
2017-12-14T21:38:22.423Z,4.15
2017-12-14T21:40:51.866Z,2.05
2017-12-14T21:43:20.530Z,3.22
2017-12-14T21:45:48.543Z,3.35
2017-12-14T21:48:16.891Z,3.25
2017-12-14T21:50:46.165Z,2.55
2017-12-14T21:53:15.590Z,5.75
2017-12-14T21:55:44.327Z,3.72
2017-12-14T21:58:12.331Z,4.15
2017-12-14T22:00:42.151Z,3.40
2017-12-14T22:03:11.096Z,4.30
2017-12-14T22:05:39.462Z,2.75
2017-12-14T22:08:08.252Z,3.08
2017-12-14T22:10:36.937Z,3.20
2017-12-14T22:13:05.249Z,6.43
2017-12-14T22:15:33.914Z,7.53
2017-12-14T22:18:02.574Z,4.12
2017-12-14T22:20:31.258Z,11.40
2017-12-14T22:22:59.589Z,7.03
2017-12-14T22:25:28.257Z,8.73
2017-12-14T22:27:56.912Z,6.05
2017-12-14T22:30:25.587Z,6.70
2017-12-14T22:32:53.901Z,6.62
2017-12-14T22:35:22.247Z,4.35
2017-12-14T22:37:50.907Z,4.47
2017-12-14T22:40:20.019Z,8.05
2017-12-14T22:42:48.686Z,4.53
2017-12-14T22:45:18.134Z,5.95
2017-12-14T22:47:46.457Z,9.57
2017-12-14T22:50:14.801Z,4.05
2017-12-14T22:52:43.157Z,8.55
2017-12-14T22:55:11.827Z,6.68
2017-12-14T22:57:40.919Z,7.75
2017-12-14T23:00:10.362Z,9.48
2017-12-14T23:02:39.020Z,7.78
2017-12-14T23:05:08.460Z,8.50
2017-12-14T23:07:36.786Z,10.38
2017-12-14T23:10:06.223Z,10.10
2017-12-14T23:12:34.235Z,6.93
2017-12-14T23:15:02.902Z,7.50
2017-12-14T23:17:30.922Z,10.50
2017-12-14T23:20:00.014Z,11.18
2017-12-14T23:22:28.680Z,6.18
2017-12-14T23:24:57.338Z,7.90
2017-12-14T23:27:25.687Z,7.12
2017-12-14T23:29:54.350Z,8.57
2017-12-14T23:32:22.686Z,6.97
2017-12-14T23:34:51.022Z,10.35
2017-12-14T23:37:20.829Z,6.47
2017-12-14T23:39:50.379Z,8.32
2017-12-14T23:42:18.723Z,8.27
2017-12-14T23:44:48.147Z,6.00
2017-12-14T23:47:16.809Z,5.80
2017-12-14T23:49:46.229Z,8.65
2017-12-14T23:52:15.337Z,6.22
2017-12-14T23:54:44.000Z,11.52
2017-12-14T23:57:13.446Z,8.77
2017-12-14T23:59:42.322Z,8.65
